Terminal Aerodrome Forecast
Issued by NWS Charleston, WV

Home | Current Version | Previous Version | Text Only | Print | Product List | Glossary On
Versions: 1 2 3 4 5 6 7 8 9 10 11 12 13 14 15 16 17 18 19 20 21 22 23 24 25 26 27 28 29 30 31
768
FTUS41 KRLX 242202 AAA
TAFEKN
TAF AMD
KEKN 242202Z 2422/2518 00000KT 6SM BR SCT008 BKN025 OVC035
     FM250600 16008KT 3SM BR BKN008 OVC060
     FM251000 18008KT 2SM +SHRA OVC050
     FM251400 23010G19KT 3SM +SHRA OVC008
     FM251700 24009G17KT P6SM OVC008=

USA.gov is the U.S. government's official web portal to all federal, state and local government web resources and services.